Time;durP1;ratioP1;P1;durP2;ratioP2;P2;SDS_P1;SDS_P2;PMS_P1;PMS_P2;Temp;Humidity;BMP_temperature;BMP_pressure;BME280_temperature;BME280_humidity;BME280_pressure;Samples;Min_cycle;Max_cycle;Signal;HPM_P1;HPM_P2
2022/01/23 00:00:19;;;;;;;9.85;3.80;;;5.80;99.90;;;;;;5092708;28;20047;-83
2022/01/23 00:03:08;;;;;;;8.60;3.83;;;5.70;99.90;;;;;;5140747;27;20069;-84
2022/01/23 00:05:52;;;;;;;12.35;4.38;;;5.80;99.90;;;;;;5140738;27;20083;-84
2022/01/23 00:08:37;;;;;;;14.27;4.40;;;6.80;99.90;;;;;;5141270;27;20042;-83
2022/01/23 00:11:25;;;;;;;11.45;4.40;;;5.70;99.90;;;;;;5141232;27;20509;-83
2022/01/23 00:17:21;;;;;;;16.90;4.22;;;7.20;99.90;;;;;;5143224;27;20045;-84
2022/01/23 00:20:08;;;;;;;10.38;4.20;;;7.30;99.90;;;;;;5140386;27;20395;-84
2022/01/23 00:23:02;;;;;;;8.75;3.75;;;5.70;99.90;;;;;;5156060;27;20099;-84
2022/01/23 00:31:52;;;;;;;10.77;4.43;;;5.70;99.90;;;;;;5156252;27;20517;-83
2022/01/23 00:34:37;;;;;;;11.25;4.45;;;5.70;99.90;;;;;;5125814;27;20054;-83
2022/01/23 00:37:22;;;;;;;10.32;4.43;;;5.90;99.90;;;;;;5126211;27;20054;-83
2022/01/23 00:40:07;;;;;;;10.00;4.63;;;5.70;99.90;;;;;;5125635;27;20121;-83
2022/01/23 00:42:54;;;;;;;8.80;4.55;;;5.60;99.90;;;;;;5140644;27;20042;-83
2022/01/23 00:45:42;;;;;;;8.45;4.25;;;5.60;99.90;;;;;;5126702;27;20041;-83
2022/01/23 00:48:34;;;;;;;11.52;4.47;;;5.80;99.90;;;;;;5140229;27;20082;-83
2022/01/23 00:51:18;;;;;;;12.90;4.68;;;5.60;99.90;;;;;;5112831;27;20103;-83
2022/01/23 00:54:03;;;;;;;;;;;6.70;99.90;;;;;;5140083;27;20091;-84
2022/01/23 00:56:47;;;;;;;12.23;4.15;;;5.60;99.90;;;;;;5140080;27;19953;-83
2022/01/23 00:59:31;;;;;;;14.02;4.60;;;6.90;99.90;;;;;;5140048;27;20038;-83
2022/01/23 01:02:16;;;;;;;13.68;5.30;;;5.60;99.90;;;;;;5110739;27;20042;-83
2022/01/23 01:05:00;;;;;;;;;;;5.60;99.90;;;;;;5125373;27;20041;-84
2022/01/23 01:07:44;;;;;;;12.30;4.63;;;6.40;99.90;;;;;;5155713;27;19926;-83
2022/01/23 01:10:37;;;;;;;13.68;4.45;;;6.00;99.90;;;;;;5139825;27;20490;-84
2022/01/23 01:13:28;;;;;;;9.80;4.70;;;6.80;99.90;;;;;;5139337;27;20042;-83
2022/01/23 01:34:16;;;;;;;11.20;5.43;;;6.50;99.90;;;;;;5154373;27;20037;-84
2022/01/23 01:37:01;;;;;;;17.45;6.10;;;6.60;99.90;;;;;;5126577;27;20057;-83
2022/01/23 01:39:45;;;;;;;13.90;5.25;;;5.60;99.90;;;;;;5154964;27;20515;-83
2022/01/23 01:42:30;;;;;;;16.55;6.53;;;6.60;99.90;;;;;;5139380;27;20042;-83
2022/01/23 01:45:19;;;;;;;;;;;5.70;99.90;;;;;;5139158;27;20042;-84
2022/01/23 01:48:04;;;;;;;12.75;5.55;;;5.60;99.90;;;;;;5139134;27;20440;-83
2022/01/23 01:50:49;;;;;;;14.23;5.85;;;5.60;99.90;;;;;;5154639;27;20050;-83
2022/01/23 01:53:33;;;;;;;14.05;5.88;;;5.70;99.90;;;;;;5154797;27;20115;-83
2022/01/23 01:56:17;;;;;;;;;;;5.60;99.90;;;;;;5124439;27;20041;-83
2022/01/23 02:10:51;;;;;;;18.08;5.75;;;5.60;99.90;;;;;;5141506;27;20126;-84
2022/01/23 02:55:35;;;;;;;16.52;5.75;;;5.70;99.90;;;;;;5128332;27;20050;-83
2022/01/23 02:58:22;;;;;;;12.43;5.70;;;6.80;99.90;;;;;;5141964;27;20041;-83
2022/01/23 03:01:15;;;;;;;15.98;6.32;;;5.60;99.90;;;;;;5157934;27;20049;-83
2022/01/23 03:04:04;;;;;;;18.23;6.18;;;6.60;99.90;;;;;;5143746;27;20045;-84
2022/01/23 03:15:28;;;;;;;11.95;5.57;;;7.00;99.90;;;;;;5144492;27;20399;-84
2022/01/23 03:27:15;;;;;;;13.15;6.03;;;5.60;99.90;;;;;;5157529;27;20042;-83
2022/01/23 03:30:15;;;;;;;16.98;6.03;;;5.60;99.90;;;;;;5144811;27;20049;-83
2022/01/23 03:32:59;;;;;;;14.95;6.28;;;6.50;99.90;;;;;;5141768;27;20091;-84
2022/01/23 03:35:44;;;;;;;11.43;6.13;;;5.60;99.90;;;;;;5156704;27;20475;-84
2022/01/23 03:38:28;;;;;;;15.63;6.18;;;5.60;99.90;;;;;;5141196;27;20401;-83
2022/01/23 03:41:12;;;;;;;;;;;6.70;99.90;;;;;;5141094;27;20087;-83
2022/01/23 03:43:57;;;;;;;15.02;6.55;;;6.90;99.90;;;;;;5126896;27;19918;-83
2022/01/23 03:49:32;;;;;;;15.85;6.18;;;5.60;99.90;;;;;;5154935;27;20163;-84
2022/01/23 03:52:16;;;;;;;12.95;6.80;;;6.30;99.90;;;;;;5141105;27;20049;-84
2022/01/23 03:55:04;;;;;;;17.27;6.45;;;6.70;99.90;;;;;;5141303;27;20034;-84
2022/01/23 03:57:48;;;;;;;14.73;5.72;;;6.30;99.90;;;;;;5126378;27;20083;-83
2022/01/23 04:00:32;;;;;;;15.52;6.63;;;5.60;99.90;;;;;;5140494;27;20087;-84
2022/01/23 04:03:19;;;;;;;10.60;5.78;;;5.70;99.90;;;;;;5140881;27;20045;-84
2022/01/23 04:06:03;;;;;;;11.85;5.78;;;6.20;99.90;;;;;;5156777;27;20079;-84
2022/01/23 04:08:48;;;;;;;13.25;6.07;;;5.60;99.90;;;;;;5111440;27;20033;-84
2022/01/23 04:11:33;;;;;;;12.35;5.88;;;6.10;99.90;;;;;;5126114;27;20447;-84
2022/01/23 04:14:19;;;;;;;12.80;6.00;;;7.20;99.90;;;;;;5126332;27;20042;-84
2022/01/23 04:17:48;;;;;;;14.70;6.00;;;5.70;99.90;;;;;;5141163;27;20091;-84
2022/01/23 04:20:35;;;;;;;14.93;5.85;;;5.60;99.90;;;;;;5156146;27;20041;-84
2022/01/23 04:45:17;;;;;;;12.68;5.63;;;5.60;99.90;;;;;;5132041;27;20064;-83
2022/01/23 04:59:55;;;;;;;15.05;6.78;;;7.00;99.90;;;;;;5130436;27;20087;-84
2022/01/23 05:05:42;;;;;;;15.65;6.85;;;6.70;99.90;;;;;;5155110;27;20114;-84
2022/01/23 05:08:29;;;;;;;16.90;7.05;;;7.40;99.90;;;;;;5139897;27;20489;-84
2022/01/23 05:11:14;;;;;;;14.45;6.78;;;6.60;99.90;;;;;;5140290;27;20102;-83
2022/01/23 05:14:01;;;;;;;15.77;7.05;;;6.60;99.90;;;;;;5124903;27;20073;-84
2022/01/23 05:16:46;;;;;;;13.60;6.68;;;5.50;99.90;;;;;;5154881;27;20069;-84
2022/01/23 05:19:32;;;;;;;18.05;7.18;;;5.50;99.90;;;;;;5139677;27;20087;-84
2022/01/23 05:22:33;;;;;;;13.73;7.63;;;5.60;99.90;;;;;;5155250;27;20038;-84
2022/01/23 05:25:25;;;;;;;15.50;6.82;;;6.50;99.90;;;;;;5155323;27;20033;-84
2022/01/23 05:28:09;;;;;;;16.13;6.63;;;5.50;99.90;;;;;;5127333;27;20099;-84
2022/01/23 05:30:53;;;;;;;;;;;6.70;99.90;;;;;;5155084;27;20467;-84
2022/01/23 05:33:38;;;;;;;15.88;6.50;;;5.50;99.90;;;;;;5124313;27;19960;-84
2022/01/23 05:36:23;;;;;;;13.70;6.22;;;5.50;99.90;;;;;;5139501;27;20103;-84
2022/01/23 05:39:07;;;;;;;17.35;6.28;;;5.50;99.90;;;;;;5139405;27;20076;-84
2022/01/23 05:41:57;;;;;;;12.02;6.50;;;7.60;99.90;;;;;;5138708;27;20084;-84
2022/01/23 05:44:42;;;;;;;14.15;6.97;;;6.90;99.90;;;;;;5138718;27;20041;-84
2022/01/23 05:47:26;;;;;;;19.52;7.22;;;5.50;99.90;;;;;;5139139;27;20496;-84
2022/01/23 05:50:11;;;;;;;19.00;6.97;;;7.40;99.90;;;;;;5124916;27;20087;-84
2022/01/23 05:52:55;;;;;;;13.82;6.60;;;5.50;99.90;;;;;;5124098;27;20054;-84
2022/01/23 05:55:40;;;;;;;20.58;7.70;;;6.90;99.90;;;;;;5138976;27;20054;-85
2022/01/23 05:58:24;;;;;;;15.95;6.95;;;5.50;99.90;;;;;;5138989;27;20046;-84
2022/01/23 06:01:09;;;;;;;15.85;7.00;;;6.50;99.90;;;;;;5139104;27;20050;-84
2022/01/23 06:03:53;;;;;;;15.77;7.35;;;6.60;99.90;;;;;;5154060;27;20046;-84
2022/01/23 06:06:37;;;;;;;16.95;7.00;;;5.70;99.90;;;;;;5138847;27;20045;-84
2022/01/23 06:09:22;;;;;;;;;;;7.00;99.90;;;;;;5154939;27;20134;-83
2022/01/23 06:12:07;;;;;;;12.73;5.45;;;6.50;99.90;;;;;;5153667;27;20027;-84
2022/01/23 06:14:51;;;;;;;11.43;5.85;;;5.50;99.90;;;;;;5138380;27;20042;-84
2022/01/23 06:17:36;;;;;;;17.02;7.10;;;6.20;99.90;;;;;;5124204;27;20038;-84
2022/01/23 06:20:20;;;;;;;14.40;7.40;;;6.20;99.90;;;;;;5124152;27;20083;-83
2022/01/23 06:23:04;;;;;;;;;;;5.50;99.90;;;;;;5154275;27;20134;-84
2022/01/23 06:25:48;;;;;;;14.85;6.45;;;5.50;99.90;;;;;;5138199;27;19917;-84
2022/01/23 06:28:59;;;;;;;16.75;6.95;;;6.70;99.90;;;;;;5154193;27;20042;-84
2022/01/23 06:31:48;;;;;;;14.68;6.25;;;6.50;99.90;;;;;;5138480;27;20493;-84
2022/01/23 06:34:33;;;;;;;15.25;7.13;;;5.80;99.90;;;;;;5154176;27;20079;-84
2022/01/23 06:37:17;;;;;;;14.27;6.55;;;5.90;99.90;;;;;;5138583;27;20079;-84
2022/01/23 06:40:02;;;;;;;14.80;6.82;;;5.90;99.90;;;;;;5123579;27;20091;-84
2022/01/23 06:42:46;;;;;;;12.77;6.10;;;5.40;99.90;;;;;;5153694;27;20083;-84
2022/01/23 06:45:30;;;;;;;;;;;6.90;99.90;;;;;;5154731;27;20091;-84
2022/01/23 06:48:15;;;;;;;14.93;5.65;;;5.70;99.90;;;;;;5138663;27;20278;-84
2022/01/23 06:50:59;;;;;;;12.25;5.95;;;6.40;99.90;;;;;;5153541;27;20115;-84
2022/01/23 06:53:44;;;;;;;15.52;5.82;;;6.70;99.90;;;;;;5124004;27;20379;-83
2022/01/23 06:56:28;;;;;;;13.82;6.60;;;6.30;99.90;;;;;;5138527;27;20033;-84
2022/01/23 06:59:12;;;;;;;;;;;5.40;99.90;;;;;;5153987;27;20084;-84
2022/01/23 07:01:57;;;;;;;;;;;7.10;99.90;;;;;;5138235;27;19914;-84
2022/01/23 07:04:42;;;;;;;11.07;5.45;;;6.70;99.90;;;;;;5138437;27;19918;-83
2022/01/23 07:07:26;;;;;;;;;;;6.50;99.90;;;;;;5138727;27;20091;-84
2022/01/23 07:10:10;;;;;;;18.15;5.97;;;5.50;99.90;;;;;;5137787;27;19959;-84
2022/01/23 07:12:54;;;;;;;13.65;5.75;;;7.00;99.90;;;;;;5137763;27;20183;-84
2022/01/23 07:15:39;;;;;;;12.73;6.10;;;6.20;99.90;;;;;;5138279;27;20042;-84
2022/01/23 07:18:24;;;;;;;14.73;7.00;;;5.30;99.90;;;;;;5138238;27;20037;-84
2022/01/23 07:21:08;;;;;;;17.23;7.47;;;5.60;99.90;;;;;;5108791;27;20539;-83
2022/01/23 07:23:52;;;;;;;;;;;5.30;99.90;;;;;;5153919;27;20083;-85
2022/01/23 07:26:37;;;;;;;15.60;7.25;;;5.60;99.90;;;;;;5157609;27;19960;-84
2022/01/23 07:29:21;;;;;;;19.30;6.88;;;5.30;99.90;;;;;;5141924;27;20083;-84
2022/01/23 07:32:09;;;;;;;17.33;6.22;;;5.70;99.90;;;;;;5141397;27;20049;-84
2022/01/23 07:34:53;;;;;;;15.75;6.43;;;5.30;99.90;;;;;;5127195;27;20106;-84
2022/01/23 07:37:37;;;;;;;17.55;6.55;;;5.40;99.90;;;;;;5127247;27;20065;-84
2022/01/23 07:40:22;;;;;;;15.18;6.93;;;5.60;99.90;;;;;;5141744;27;20091;-83
2022/01/23 07:43:06;;;;;;;14.77;6.72;;;6.80;99.90;;;;;;5141033;27;20069;-84
2022/01/23 07:45:50;;;;;;;;;;;6.50;99.90;;;;;;5157536;27;20042;-84
2022/01/23 07:48:34;;;;;;;14.15;6.60;;;7.50;99.90;;;;;;5141426;27;19922;-83
2022/01/23 07:51:18;;;;;;;;;;;6.30;99.90;;;;;;5156973;27;20041;-84
2022/01/23 07:54:03;;;;;;;12.85;5.85;;;5.30;99.90;;;;;;5141004;27;20328;-83
2022/01/23 07:56:47;;;;;;;12.57;6.05;;;5.40;99.90;;;;;;5141249;27;20137;-83
2022/01/23 07:59:34;;;;;;;10.93;5.93;;;5.80;99.90;;;;;;5141358;27;20038;-85
2022/01/23 08:02:22;;;;;;;13.13;6.13;;;6.10;99.90;;;;;;5140667;27;20046;-85
2022/01/23 08:05:09;;;;;;;12.23;6.47;;;5.40;99.90;;;;;;5156488;27;20088;-83
2022/01/23 08:07:53;;;;;;;18.85;6.50;;;5.40;99.90;;;;;;5156797;27;20418;-84
2022/01/23 08:10:39;;;;;;;;;;;7.50;99.90;;;;;;5141452;27;20513;-83
2022/01/23 08:13:23;;;;;;;13.35;7.07;;;5.40;99.90;;;;;;5156998;27;20462;-83
2022/01/23 08:16:07;;;;;;;;;;;5.50;99.90;;;;;;5156571;27;20522;-84
2022/01/23 08:18:52;;;;;;;17.75;6.97;;;5.50;99.90;;;;;;5140882;27;19918;-83
2022/01/23 08:21:36;;;;;;;16.33;6.68;;;5.70;99.90;;;;;;5126507;27;20049;-83
2022/01/23 08:24:20;;;;;;;17.58;8.07;;;5.50;99.90;;;;;;5140365;27;20071;-83
2022/01/23 08:27:04;;;;;;;17.00;8.02;;;5.50;99.90;;;;;;5140394;27;20053;-83
2022/01/23 08:29:48;;;;;;;17.85;8.50;;;5.60;99.90;;;;;;5140612;27;20125;-83
2022/01/23 08:32:32;;;;;;;;;;;6.90;99.90;;;;;;5140905;27;20401;-83
2022/01/23 08:35:17;;;;;;;17.52;9.02;;;5.60;99.90;;;;;;5140105;27;19933;-83
2022/01/23 08:38:02;;;;;;;19.92;8.27;;;5.70;99.90;;;;;;5140345;27;20086;-84
2022/01/23 08:40:58;;;;;;;20.42;9.35;;;5.60;99.90;;;;;;5126216;27;20442;-83
2022/01/23 08:43:43;;;;;;;18.25;9.43;;;6.30;99.90;;;;;;5142356;27;20044;-83
2022/01/23 08:46:27;;;;;;;19.20;9.57;;;6.70;99.90;;;;;;5125579;27;20074;-83
2022/01/23 08:49:11;;;;;;;;;;;7.60;99.90;;;;;;5140217;27;20473;-83
2022/01/23 08:51:56;;;;;;;17.10;8.65;;;6.50;99.90;;;;;;5155786;27;20382;-83
2022/01/23 08:54:41;;;;;;;16.40;8.90;;;5.70;99.90;;;;;;5155835;27;20044;-83
2022/01/23 08:57:25;;;;;;;15.13;7.63;;;7.00;99.90;;;;;;5125244;27;20410;-83
2022/01/23 09:00:10;;;;;;;12.65;7.32;;;6.80;99.90;;;;;;5139748;27;20037;-84
2022/01/23 09:02:55;;;;;;;15.90;8.05;;;5.80;99.90;;;;;;5139909;27;20091;-84
2022/01/23 09:05:39;;;;;;;17.00;7.93;;;;;;;;;;5155783;27;20034;-83
2022/01/23 09:08:26;;;;;;;13.50;6.72;;;5.80;99.90;;;;;;5139532;27;20038;-83
2022/01/23 09:11:23;;;;;;;17.50;9.02;;;5.40;99.90;;;;;;5125049;27;20524;-84
2022/01/23 09:14:10;;;;;;;11.98;7.78;;;5.90;99.90;;;;;;5139155;27;20492;-83
2022/01/23 09:16:55;;;;;;;17.15;7.25;;;7.00;99.90;;;;;;5139435;27;20115;-83
2022/01/23 09:19:39;;;;;;;13.70;6.72;;;6.00;99.90;;;;;;5139382;27;20029;-83
2022/01/23 09:22:27;;;;;;;10.88;7.05;;;6.20;99.90;;;;;;5124294;27;20447;-82
2022/01/23 09:25:11;;;;;;;9.98;6.10;;;6.10;99.90;;;;;;5139087;27;20060;-84
2022/01/23 09:27:56;;;;;;;;;;;6.50;99.90;;;;;;5139688;27;20056;-83
2022/01/23 09:30:44;;;;;;;11.20;6.50;;;6.10;99.90;;;;;;5139445;27;19914;-83
2022/01/23 09:33:30;;;;;;;11.63;6.47;;;6.10;99.90;;;;;;5139104;27;20107;-83
2022/01/23 09:36:14;;;;;;;11.63;6.70;;;6.10;99.90;;;;;;5154560;27;20073;-84
2022/01/23 09:38:58;;;;;;;9.60;5.80;;;6.10;99.90;;;;;;5151730;27;20110;-84
2022/01/23 09:41:46;;;;;;;9.32;6.05;;;6.10;99.90;;;;;;5118596;27;20046;-83
2022/01/23 09:44:36;;;;;;;11.52;6.38;;;6.20;99.90;;;;;;5122811;27;20065;-83
2022/01/23 09:47:21;;;;;;;9.90;5.45;;;7.30;99.90;;;;;;5137801;27;20038;-83
2022/01/23 09:50:07;;;;;;;7.57;5.07;;;6.70;99.90;;;;;;5138805;27;20087;-84
2022/01/23 09:52:53;;;;;;;8.85;5.05;;;6.30;99.90;;;;;;5124470;27;20111;-83
2022/01/23 09:55:40;;;;;;;11.80;5.38;;;6.30;99.90;;;;;;5135116;27;20096;-83
2022/01/23 09:58:25;;;;;;;9.00;4.40;;;6.30;99.90;;;;;;5129675;27;20045;-83
2022/01/23 10:01:10;;;;;;;6.65;4.65;;;7.20;99.90;;;;;;5139223;27;20069;-84
2022/01/23 10:03:55;;;;;;;7.10;4.55;;;7.00;99.90;;;;;;5139793;27;20072;-83
2022/01/23 10:06:39;;;;;;;6.75;4.53;;;6.30;99.90;;;;;;5152525;27;20052;-83
2022/01/23 10:09:28;;;;;;;9.52;4.75;;;6.40;99.90;;;;;;5137743;27;20041;-84
2022/01/23 10:12:13;;;;;;;9.18;4.65;;;6.60;99.90;;;;;;5141503;27;20046;-84
2022/01/23 10:14:57;;;;;;;7.60;4.60;;;6.50;99.90;;;;;;5151790;27;20115;-84
2022/01/23 10:17:41;;;;;;;7.95;4.90;;;7.30;99.90;;;;;;5153941;27;20122;-84
2022/01/23 10:20:25;;;;;;;;;;;6.50;99.90;;;;;;5138309;27;20418;-84
2022/01/23 10:23:10;;;;;;;;;;;7.50;99.90;;;;;;5124001;27;20345;-84
2022/01/23 10:25:54;;;;;;;6.38;3.58;;;6.60;99.90;;;;;;5137813;27;20275;-85
2022/01/23 10:28:38;;;;;;;5.32;3.60;;;6.60;99.90;;;;;;5153222;27;20096;-85
2022/01/23 10:31:23;;;;;;;5.88;3.35;;;6.90;99.90;;;;;;5137766;27;20130;-85
2022/01/23 10:34:07;;;;;;;5.25;3.10;;;6.70;99.90;;;;;;5137947;27;20076;-85
2022/01/23 10:36:52;;;;;;;4.18;3.10;;;6.70;99.90;;;;;;5123513;27;20062;-85
2022/01/23 10:39:41;;;;;;;2.72;1.50;;;6.70;99.90;;;;;;5122077;27;20041;-84
2022/01/23 10:42:51;;;;;;;5.18;2.90;;;6.80;99.90;;;;;;5137477;27;20102;-84
2022/01/23 10:48:42;;;;;;;2.33;1.45;;;6.90;99.90;;;;;;5140188;27;20063;-84
2022/01/23 10:51:30;;;;;;;5.00;1.45;;;6.90;99.90;;;;;;5137369;27;20089;-84
2022/01/23 10:54:20;;;;;;;2.28;1.40;;;6.90;99.90;;;;;;5153755;27;20183;-85
2022/01/23 10:57:07;;;;;;;2.80;1.60;;;6.90;99.90;;;;;;5153764;27;20030;-84
2022/01/23 10:59:53;;;;;;;2.80;1.73;;;6.90;99.90;;;;;;5155681;27;20030;-85
2022/01/23 11:02:39;;;;;;;5.20;1.90;;;7.00;99.90;;;;;;5141520;27;20068;-85
2022/01/23 11:05:36;;;;;;;5.13;2.50;;;7.00;99.90;;;;;;5141616;27;20095;-84
2022/01/23 11:08:22;;;;;;;4.07;2.15;;;6.90;99.90;;;;;;5141978;27;20167;-88
2022/01/23 11:11:08;;;;;;;2.90;1.80;;;7.00;99.90;;;;;;5142134;27;20069;-82
2022/01/23 11:20:01;;;;;;;5.95;2.15;;;7.60;99.90;;;;;;5175690;27;20140;-83
2022/01/23 11:22:45;;;;;;;3.22;2.13;;;7.10;99.90;;;;;;5135795;27;20050;-83
2022/01/23 11:25:29;;;;;;;;;;;7.20;99.90;;;;;;5136186;27;20038;-83
2022/01/23 11:28:14;;;;;;;2.65;1.50;;;7.20;99.90;;;;;;5106786;27;19956;-83
2022/01/23 11:30:58;;;;;;;;;;;7.20;99.90;;;;;;5136902;27;20042;-83
2022/01/23 11:33:42;;;;;;;1.83;1.10;;;7.20;99.90;;;;;;5120411;27;19937;-83
2022/01/23 11:36:27;;;;;;;2.08;1.15;;;7.30;99.90;;;;;;5120412;27;20084;-86
2022/01/23 11:39:31;;;;;;;2.08;1.20;;;7.40;99.90;;;;;;5136742;27;20493;-84
2022/01/23 11:54:12;;;;;;;1.40;0.90;;;8.20;99.90;;;;;;5136092;27;20038;-83
2022/01/23 11:56:59;;;;;;;2.40;0.95;;;7.70;99.90;;;;;;5120515;27;20058;-85
2022/01/23 11:59:48;;;;;;;1.20;0.80;;;7.30;99.90;;;;;;5133070;27;20042;-85
2022/01/23 12:02:37;;;;;;;2.33;1.00;;;7.40;99.90;;;;;;5120312;27;20046;-85
2022/01/23 12:05:24;;;;;;;1.92;1.20;;;7.30;99.90;;;;;;5136168;27;20080;-84
2022/01/23 12:08:36;;;;;;;2.78;1.45;;;7.30;99.90;;;;;;5120766;27;20127;-85
2022/01/23 12:17:38;;;;;;;3.53;1.60;;;7.40;99.90;;;;;;5136032;27;20041;-85
2022/01/23 12:20:33;;;;;;;2.33;1.55;;;7.40;99.90;;;;;;5120435;27;20528;-84
2022/01/23 12:23:18;;;;;;;3.47;1.60;;;7.40;99.90;;;;;;5120284;27;20124;-84
2022/01/23 12:26:07;;;;;;;4.05;1.85;;;8.40;99.90;;;;;;5135695;27;20042;-84
2022/01/23 12:28:51;;;;;;;3.55;1.92;;;7.40;99.90;;;;;;5135200;27;20103;-85
2022/01/23 12:31:36;;;;;;;2.50;1.55;;;7.40;99.90;;;;;;5135105;27;20092;-85
2022/01/23 12:34:45;;;;;;;3.50;1.80;;;8.20;99.90;;;;;;5120084;27;20042;-85
2022/01/23 12:38:02;;;;;;;4.28;2.05;;;7.40;99.90;;;;;;5135499;27;20062;-84
2022/01/23 12:40:48;;;;;;;4.57;2.42;;;7.40;99.90;;;;;;5134960;27;20056;-84
2022/01/23 12:43:37;;;;;;;4.35;2.25;;;8.60;99.90;;;;;;5135371;27;20083;-84
2022/01/23 12:46:24;;;;;;;5.93;2.80;;;7.40;99.90;;;;;;5135387;27;20449;-85
2022/01/23 12:49:24;;;;;;;5.03;2.72;;;7.40;99.90;;;;;;5120251;27;20042;-84
2022/01/23 12:52:11;;;;;;;6.85;2.90;;;7.50;99.90;;;;;;5135138;27;20112;-84
2022/01/23 12:54:58;;;;;;;4.15;2.97;;;7.40;99.90;;;;;;5134735;27;20099;-85
2022/01/23 12:57:43;;;;;;;4.55;3.15;;;8.20;99.90;;;;;;5119159;27;20034;-85
2022/01/23 13:00:28;;;;;;;5.15;2.75;;;7.50;99.90;;;;;;5119433;27;20163;-85
2022/01/23 13:03:12;;;;;;;4.30;2.70;;;7.50;99.90;;;;;;5105139;27;20042;-85
2022/01/23 13:05:57;;;;;;;5.95;2.80;;;8.10;99.90;;;;;;5119031;27;20084;-85
2022/01/23 13:08:49;;;;;;;6.13;2.90;;;7.60;99.90;;;;;;5134570;27;20038;-84
2022/01/23 13:11:54;;;;;;;4.40;2.90;;;7.50;99.90;;;;;;5120565;27;20402;-85
2022/01/23 13:30:20;;;;;;;3.45;1.90;;;7.50;99.90;;;;;;5122044;27;20042;-84
2022/01/23 13:33:11;;;;;;;2.53;1.30;;;7.50;99.90;;;;;;5134352;27;20062;-85
2022/01/23 13:35:55;;;;;;;4.88;1.70;;;7.50;99.90;;;;;;5104996;27;20058;-85
2022/01/23 13:38:40;;;;;;;3.25;1.50;;;9.30;99.90;;;;;;5089740;27;20046;-85
2022/01/23 13:41:35;;;;;;;2.15;1.35;;;7.40;99.90;;;;;;5104444;27;20064;-85
2022/01/23 14:00:12;;;;;;;2.55;1.40;;;7.40;99.90;;;;;;5133484;27;20042;-85
2022/01/23 14:02:56;;;;;;;3.15;1.30;;;7.40;99.90;;;;;;5133803;27;20041;-85
2022/01/23 14:05:41;;;;;;;2.42;1.50;;;7.40;99.90;;;;;;5105280;27;20080;-85
2022/01/23 14:08:26;;;;;;;2.53;1.20;;;7.30;99.90;;;;;;5118651;27;20130;-85
2022/01/23 14:11:11;;;;;;;3.53;1.73;;;7.30;99.90;;;;;;5118436;27;20045;-85
2022/01/23 14:14:07;;;;;;;3.80;1.50;;;7.30;99.90;;;;;;5117879;27;20038;-85
2022/01/23 14:16:55;;;;;;;5.13;1.58;;;8.20;99.90;;;;;;5133224;27;20038;-84
2022/01/23 14:19:40;;;;;;;3.17;1.67;;;7.30;99.90;;;;;;5133819;27;20054;-85
2022/01/23 14:22:34;;;;;;;3.28;1.40;;;8.20;99.90;;;;;;5118218;27;20164;-84
2022/01/23 14:25:21;;;;;;;3.20;1.65;;;7.20;99.90;;;;;;5118077;27;20030;-85
2022/01/23 14:28:13;;;;;;;1.90;1.20;;;7.20;99.90;;;;;;5133191;27;20592;-85
2022/01/23 14:30:59;;;;;;;3.05;1.77;;;7.20;99.90;;;;;;5133067;28;20038;-85
2022/01/23 14:33:48;;;;;;;3.67;1.67;;;7.20;99.90;;;;;;5121094;27;20072;-85
2022/01/23 14:36:35;;;;;;;3.85;1.40;;;7.10;99.90;;;;;;5124743;27;20128;-85
2022/01/23 14:39:23;;;;;;;5.55;1.67;;;7.10;99.90;;;;;;5124834;27;20440;-85
2022/01/23 14:42:15;;;;;;;4.00;1.65;;;7.30;99.90;;;;;;5124295;27;20068;-85
2022/01/23 14:45:04;;;;;;;3.53;1.50;;;7.10;99.90;;;;;;5124300;27;20046;-84
2022/01/23 14:47:49;;;;;;;3.80;1.40;;;7.10;99.90;;;;;;5139681;27;20064;-85
2022/01/23 14:50:37;;;;;;;2.53;1.40;;;7.60;99.90;;;;;;5124725;27;20543;-84
2022/01/23 14:53:24;;;;;;;4.15;1.40;;;7.10;99.90;;;;;;5110605;27;20046;-84
2022/01/23 14:56:11;;;;;;;5.75;1.70;;;7.00;99.90;;;;;;5139731;27;20064;-85
2022/01/23 14:58:55;;;;;;;3.28;1.80;;;7.10;99.90;;;;;;5109783;27;20043;-84
2022/01/23 15:01:42;;;;;;;2.85;1.70;;;7.10;99.90;;;;;;5140123;27;20058;-84
2022/01/23 15:04:27;;;;;;;3.42;1.60;;;7.00;99.90;;;;;;5140079;27;20122;-85
2022/01/23 15:07:15;;;;;;;;;;;7.10;99.90;;;;;;5124622;27;20448;-84
2022/01/23 15:09:59;;;;;;;4.78;1.58;;;7.00;99.90;;;;;;5139641;27;19960;-85
2022/01/23 15:12:43;;;;;;;3.35;1.52;;;7.50;99.90;;;;;;5110125;27;20053;-85
2022/01/23 15:15:27;;;;;;;;;;;7.40;99.90;;;;;;5110652;27;20081;-85
2022/01/23 15:18:13;;;;;;;4.18;1.55;;;6.90;99.90;;;;;;5139649;27;19921;-85
2022/01/23 15:20:57;;;;;;;5.57;1.88;;;6.90;99.90;;;;;;5123833;27;20502;-85
2022/01/23 15:23:42;;;;;;;3.75;2.30;;;6.90;99.90;;;;;;5124511;27;20047;-85
2022/01/23 15:26:30;;;;;;;5.25;3.10;;;6.90;99.90;;;;;;5139921;27;20029;-85
2022/01/23 15:29:15;;;;;;;3.30;1.80;;;6.90;99.90;;;;;;5139785;27;20057;-85
2022/01/23 15:32:00;;;;;;;3.75;2.00;;;6.90;99.90;;;;;;5123720;27;20050;-85
2022/01/23 15:34:44;;;;;;;4.85;1.98;;;6.90;99.90;;;;;;5124172;27;20042;-85
2022/01/23 15:37:29;;;;;;;6.05;2.17;;;6.80;99.90;;;;;;5139877;27;20050;-85
2022/01/23 15:40:15;;;;;;;2.85;1.58;;;6.80;99.90;;;;;;5139435;27;20091;-85
2022/01/23 15:42:59;;;;;;;2.95;1.70;;;6.80;99.90;;;;;;5109205;27;20502;-85
2022/01/23 15:45:45;;;;;;;2.92;2.00;;;6.80;99.90;;;;;;5136757;27;20042;-85
2022/01/23 15:48:30;;;;;;;4.40;2.00;;;6.90;99.90;;;;;;5106703;27;20107;-85
2022/01/23 15:51:15;;;;;;;4.10;2.13;;;7.60;99.90;;;;;;5106100;27;20049;-84
2022/01/23 15:53:59;;;;;;;5.32;2.22;;;6.80;99.90;;;;;;5135971;27;20399;-85
2022/01/23 15:56:47;;;;;;;3.35;2.08;;;7.90;99.90;;;;;;5120699;27;20038;-84
2022/01/23 15:59:32;;;;;;;3.58;1.90;;;6.80;99.90;;;;;;5136434;27;20038;-84
2022/01/23 16:02:17;;;;;;;4.95;2.33;;;6.80;99.90;;;;;;5120302;27;20104;-84
2022/01/23 16:05:03;;;;;;;4.10;2.10;;;6.80;99.90;;;;;;5120049;27;20083;-85
2022/01/23 16:07:47;;;;;;;3.20;1.77;;;6.70;99.90;;;;;;5120512;27;20046;-85
2022/01/23 16:10:32;;;;;;;4.50;2.25;;;7.70;99.90;;;;;;5136168;27;20054;-84
2022/01/23 16:13:17;;;;;;;4.22;2.13;;;6.70;99.90;;;;;;5119865;27;20092;-84
2022/01/23 16:16:01;;;;;;;6.15;2.90;;;6.90;99.90;;;;;;5135510;27;20080;-85
2022/01/23 16:18:46;;;;;;;5.47;3.42;;;7.10;99.90;;;;;;5135821;27;20030;-85
2022/01/23 16:21:31;;;;;;;3.95;2.50;;;7.30;99.90;;;;;;5120527;27;20124;-84
2022/01/23 16:24:15;;;;;;;4.10;2.63;;;6.70;99.90;;;;;;5119722;27;20050;-84
2022/01/23 16:27:00;;;;;;;3.70;2.45;;;6.70;99.90;;;;;;5120194;27;20487;-84
2022/01/23 16:29:44;;;;;;;4.85;2.40;;;6.70;99.90;;;;;;5135829;27;20398;-85
2022/01/23 16:32:28;;;;;;;;;;;6.70;99.90;;;;;;5135980;27;20046;-85
2022/01/23 16:35:14;;;;;;;4.13;2.53;;;6.70;99.90;;;;;;5119439;27;19992;-84
2022/01/23 16:37:59;;;;;;;5.07;3.00;;;6.60;99.90;;;;;;5120071;27;20045;-84
2022/01/23 16:40:44;;;;;;;;;;;6.60;99.90;;;;;;5120373;27;20046;-85
2022/01/23 16:43:30;;;;;;;4.80;2.78;;;6.60;99.90;;;;;;5135667;27;19961;-85
2022/01/23 16:46:16;;;;;;;4.72;3.25;;;7.10;99.90;;;;;;5137060;27;20038;-85
2022/01/23 16:49:00;;;;;;;5.10;3.38;;;6.60;99.90;;;;;;5111212;27;20083;-84
2022/01/23 16:51:46;;;;;;;6.57;3.35;;;6.60;99.90;;;;;;5139976;27;20053;-85
2022/01/23 16:54:30;;;;;;;7.82;3.45;;;6.60;99.90;;;;;;5140368;27;20045;-83
2022/01/23 16:57:15;;;;;;;5.70;2.80;;;6.60;99.90;;;;;;5138742;27;20533;-84
2022/01/23 16:59:59;;;;;;;5.20;3.33;;;6.80;99.90;;;;;;5140153;27;20046;-83
2022/01/23 17:02:44;;;;;;;6.57;3.00;;;7.80;99.90;;;;;;5111168;27;20037;-84
2022/01/23 17:05:29;;;;;;;5.15;2.95;;;6.60;99.90;;;;;;5139124;27;20534;-84
2022/01/23 17:08:15;;;;;;;4.43;2.75;;;6.60;99.90;;;;;;5154849;27;20118;-84
2022/01/23 17:11:00;;;;;;;4.10;3.03;;;6.70;99.90;;;;;;5140011;27;20608;-84
2022/01/23 17:13:45;;;;;;;4.95;2.95;;;6.80;99.90;;;;;;5104423;27;20096;-84
2022/01/23 17:16:29;;;;;;;5.90;2.85;;;6.60;99.90;;;;;;5118142;27;20038;-84
2022/01/23 17:19:14;;;;;;;4.68;2.90;;;6.60;99.90;;;;;;5118340;27;20046;-84
2022/01/23 17:21:58;;;;;;;6.18;3.17;;;6.50;99.90;;;;;;5118798;27;20089;-83
2022/01/23 17:24:42;;;;;;;5.28;3.58;;;6.60;99.90;;;;;;5118660;27;20122;-84
2022/01/23 17:27:26;;;;;;;5.95;3.47;;;7.30;99.90;;;;;;5117964;27;20042;-84
2022/01/23 17:30:13;;;;;;;9.05;4.18;;;6.60;99.90;;;;;;5103833;27;20061;-84
2022/01/23 17:32:57;;;;;;;7.40;4.32;;;6.50;99.90;;;;;;5118396;27;20403;-83
2022/01/23 17:35:41;;;;;;;;;;;6.80;99.90;;;;;;5118743;27;20058;-84
2022/01/23 17:38:25;;;;;;;7.25;4.93;;;6.50;99.90;;;;;;5117895;27;19963;-83
2022/01/23 17:41:09;;;;;;;;;;;6.50;99.90;;;;;;5104340;27;20046;-83
2022/01/23 17:43:54;;;;;;;6.13;2.70;;;6.50;99.90;;;;;;5123219;27;19918;-84
2022/01/23 17:46:41;;;;;;;8.82;3.70;;;6.50;99.90;;;;;;5153900;27;20037;-83
2022/01/23 17:49:38;;;;;;;5.55;3.33;;;6.50;99.90;;;;;;5138094;27;20042;-83
2022/01/23 17:52:24;;;;;;;6.15;3.72;;;7.20;99.90;;;;;;5124977;27;20060;-84
2022/01/23 17:55:10;;;;;;;8.07;3.58;;;8.00;99.90;;;;;;5129864;27;20037;-83
2022/01/23 17:57:54;;;;;;;6.57;4.22;;;6.50;99.90;;;;;;5153208;27;20034;-83